Time;durP1;ratioP1;P1;durP2;ratioP2;P2;SDS_P1;SDS_P2;PMS_P1;PMS_P2;Temp;Humidity;BMP_temperature;BMP_pressure;BME280_temperature;BME280_humidity;BME280_pressure;Samples;Min_cycle;Max_cycle;Signal;HPM_P1;HPM_P2
2022/07/08 05:02:13;;;;;;;8.60;1.83;;;14.00;91.10;;;;;;5536494;23;20043;-77
2022/07/08 05:04:41;;;;;;;7.75;2.25;;;14.10;91.10;;;;;;4934585;29;20023;-77
2022/07/08 05:07:07;;;;;;;6.07;1.92;;;14.00;91.20;;;;;;4946729;29;20332;-77
2022/07/08 05:09:35;;;;;;;6.15;2.38;;;14.10;91.20;;;;;;4945776;29;20094;-77
2022/07/08 05:12:02;;;;;;;;;;;14.10;91.10;;;;;;4947338;29;20035;-77
2022/07/08 05:14:30;;;;;;;7.72;1.90;;;14.20;90.90;;;;;;4947085;29;19953;-79
2022/07/08 05:17:04;;;;;;;7.78;2.78;;;14.30;90.80;;;;;;4961021;29;20046;-80
2022/07/08 05:19:33;;;;;;;5.88;2.05;;;14.40;90.20;;;;;;4942784;29;20036;-80
2022/07/08 05:22:05;;;;;;;6.80;1.98;;;14.40;90.20;;;;;;4943699;29;20221;-80
2022/07/08 05:24:31;;;;;;;7.32;1.73;;;14.40;90.10;;;;;;4927983;29;20020;-73
2022/07/08 05:26:59;;;;;;;5.05;1.55;;;14.50;90.10;;;;;;4932367;29;20047;-78
2022/07/08 05:29:51;;;;;;;;;;;14.60;90.30;;;;;;4947245;29;20043;-80
2022/07/08 05:32:17;;;;;;;7.07;1.65;;;14.70;88.70;;;;;;4942187;29;19931;-80
2022/07/08 05:34:44;;;;;;;9.25;2.00;;;14.70;88.90;;;;;;4945961;29;20058;-78
2022/07/08 05:37:11;;;;;;;7.85;1.95;;;14.80;89.00;;;;;;4946763;29;20036;-78
2022/07/08 05:39:41;;;;;;;6.55;2.10;;;14.80;89.20;;;;;;4946202;29;20034;-79
2022/07/08 05:42:10;;;;;;;8.73;1.70;;;14.80;89.00;;;;;;4946987;29;20055;-78
2022/07/08 05:44:39;;;;;;;5.70;1.88;;;14.90;88.40;;;;;;4946432;29;20047;-80
2022/07/08 05:47:07;;;;;;;10.07;2.08;;;15.00;88.20;;;;;;4946213;29;20329;-79
2022/07/08 05:49:34;;;;;;;8.13;1.73;;;15.10;87.80;;;;;;4945028;29;20038;-78
2022/07/08 05:52:00;;;;;;;6.22;1.83;;;15.20;87.30;;;;;;4936933;29;20217;-76
2022/07/08 05:54:26;;;;;;;8.02;1.58;;;15.20;87.30;;;;;;4946400;29;20032;-78
2022/07/08 05:56:52;;;;;;;7.18;1.60;;;15.30;86.80;;;;;;4933820;29;20051;-78
2022/07/08 05:59:18;;;;;;;5.45;1.50;;;15.20;86.70;;;;;;4945136;29;20039;-73
2022/07/08 06:01:47;;;;;;;8.27;1.95;;;15.30;86.00;;;;;;4939538;29;20078;-81
2022/07/08 06:04:13;;;;;;;7.13;1.63;;;15.40;85.90;;;;;;4926370;29;20028;-80
2022/07/08 06:06:40;;;;;;;7.82;1.60;;;15.40;85.70;;;;;;4924628;29;20170;-79
2022/07/08 06:09:15;;;;;;;5.93;2.20;;;15.50;85.90;;;;;;4940719;29;20027;-79
2022/07/08 06:11:42;;;;;;;6.20;1.50;;;15.70;85.70;;;;;;4923189;29;20051;-81
2022/07/08 06:14:36;;;;;;;6.45;1.73;;;15.70;85.50;;;;;;4925122;29;20030;-77
2022/07/08 06:17:12;;;;;;;7.55;1.67;;;15.80;85.70;;;;;;4938497;29;20191;-78
2022/07/08 06:19:41;;;;;;;10.27;1.70;;;15.80;85.10;;;;;;4925399;29;20036;-78
2022/07/08 06:22:08;;;;;;;5.32;1.90;;;15.70;85.20;;;;;;4925712;29;20028;-77
2022/07/08 06:24:34;;;;;;;6.70;1.50;;;15.60;85.40;;;;;;4940012;29;20040;-77
2022/07/08 06:27:00;;;;;;;9.13;1.80;;;15.60;85.30;;;;;;4920094;29;20050;-77
2022/07/08 06:29:27;;;;;;;9.68;1.63;;;15.80;84.30;;;;;;4909252;29;20052;-78
2022/07/08 06:31:59;;;;;;;8.10;1.98;;;15.90;84.00;;;;;;4927622;29;20040;-77
2022/07/08 06:34:26;;;;;;;4.95;1.17;;;16.00;83.90;;;;;;4914449;29;20047;-79
2022/07/08 06:36:54;;;;;;;5.10;1.55;;;16.10;82.30;;;;;;4906451;29;20059;-77
2022/07/08 06:39:24;;;;;;;6.18;1.25;;;16.40;82.20;;;;;;4905398;29;20083;-78
2022/07/08 06:42:03;;;;;;;5.95;1.30;;;16.80;81.30;;;;;;4904925;29;20041;-78
2022/07/08 06:44:33;;;;;;;4.90;1.02;;;17.10;79.30;;;;;;4905188;29;20059;-79
2022/07/08 06:47:03;;;;;;;6.60;1.20;;;17.40;77.50;;;;;;4915983;29;20070;-79
2022/07/08 06:49:32;;;;;;;4.70;1.02;;;17.60;76.40;;;;;;4920607;29;20217;-79
2022/07/08 06:52:19;;;;;;;3.53;1.10;;;17.80;76.10;;;;;;4913667;29;20072;-79
2022/07/08 06:54:48;;;;;;;5.47;1.80;;;18.10;75.80;;;;;;4905350;29;20076;-79
2022/07/08 06:57:15;;;;;;;6.18;1.02;;;18.40;74.30;;;;;;4912405;29;20103;-79
2022/07/08 06:59:55;;;;;;;5.18;1.20;;;18.80;72.60;;;;;;4939474;29;20059;-81
2022/07/08 07:02:42;;;;;;;3.10;0.70;;;19.00;72.40;;;;;;4922574;29;20040;-78
2022/07/08 07:05:23;;;;;;;4.50;0.90;;;19.00;70.30;;;;;;4924635;29;20140;-80
2022/07/08 07:07:48;;;;;;;5.68;0.98;;;19.10;70.00;;;;;;4939169;29;20071;-80
2022/07/08 07:10:17;;;;;;;4.47;1.00;;;19.00;70.30;;;;;;4924908;29;20322;-79
2022/07/08 07:13:05;;;;;;;5.22;1.00;;;18.70;70.70;;;;;;4939282;29;20039;-80
2022/07/08 07:16:03;;;;;;;7.47;1.83;;;18.70;72.20;;;;;;4923771;29;20360;-81
2022/07/08 07:18:33;;;;;;;4.55;0.80;;;19.00;71.40;;;;;;4922625;29;20130;-82
2022/07/08 07:21:02;;;;;;;3.70;1.02;;;19.20;70.90;;;;;;4920262;29;20201;-83
2022/07/08 07:23:27;;;;;;;7.78;1.35;;;19.40;69.90;;;;;;4906365;29;20056;-83
2022/07/08 07:25:56;;;;;;;6.15;0.95;;;19.30;69.70;;;;;;4906140;29;20024;-79
2022/07/08 07:28:34;;;;;;;3.90;0.73;;;19.40;70.10;;;;;;4907703;29;20049;-79
2022/07/08 07:31:03;;;;;;;5.78;1.05;;;19.40;68.20;;;;;;4895725;29;20198;-79
2022/07/08 07:33:29;;;;;;;4.00;0.80;;;19.40;68.00;;;;;;4889445;29;20088;-78
2022/07/08 07:35:56;;;;;;;5.35;1.10;;;19.40;68.10;;;;;;4905476;29;20029;-78
2022/07/08 07:38:34;;;;;;;4.38;0.88;;;19.50;68.60;;;;;;4904760;29;20024;-79
2022/07/08 07:41:01;;;;;;;5.97;1.10;;;19.40;68.10;;;;;;4919429;29;20053;-79
2022/07/08 07:43:30;;;;;;;5.68;1.10;;;19.20;68.70;;;;;;4906142;29;20075;-79
2022/07/08 07:46:06;;;;;;;6.30;1.30;;;19.40;69.10;;;;;;4896759;29;20255;-79
2022/07/08 07:48:34;;;;;;;4.97;1.13;;;19.50;68.60;;;;;;4916359;29;20029;-78
2022/07/08 07:51:12;;;;;;;7.97;1.10;;;19.60;68.40;;;;;;4888220;29;20319;-79
2022/07/08 07:53:49;;;;;;;3.97;0.98;;;20.10;67.90;;;;;;4905431;29;20163;-78
2022/07/08 07:56:25;;;;;;;5.90;0.98;;;20.60;66.00;;;;;;4906465;29;20032;-78
2022/07/08 07:58:54;;;;;;;4.47;1.08;;;20.90;65.40;;;;;;4905653;29;20349;-78
2022/07/08 08:01:36;;;;;;;5.35;0.95;;;21.20;63.40;;;;;;4918731;29;20036;-78
2022/07/08 08:04:02;;;;;;;6.10;0.90;;;21.20;63.20;;;;;;4907768;29;20040;-79
2022/07/08 08:06:39;;;;;;;3.53;0.75;;;21.60;62.10;;;;;;4908420;29;20040;-78
2022/07/08 08:09:05;;;;;;;5.95;1.17;;;21.90;62.30;;;;;;4909331;29;20038;-79
2022/07/08 08:11:34;;;;;;;4.63;0.90;;;21.80;61.30;;;;;;4907964;29;20222;-78
2022/07/08 08:14:24;;;;;;;4.13;1.20;;;21.60;61.30;;;;;;4907589;29;20287;-77
2022/07/08 08:16:56;;;;;;;4.80;0.98;;;21.40;62.30;;;;;;4908155;29;20037;-79
2022/07/08 08:19:21;;;;;;;4.60;0.85;;;21.30;62.60;;;;;;4909317;29;20260;-78
2022/07/08 08:21:48;;;;;;;4.10;1.20;;;21.40;62.30;;;;;;4885237;29;20122;-79
2022/07/08 08:24:29;;;;;;;4.93;0.90;;;21.60;62.60;;;;;;4927439;29;20282;-78
2022/07/08 08:26:57;;;;;;;6.82;1.42;;;21.50;61.90;;;;;;4927402;29;20306;-79
2022/07/08 08:29:26;;;;;;;6.50;1.02;;;21.80;62.10;;;;;;4926517;29;20234;-80
2022/07/08 08:31:55;;;;;;;7.90;1.10;;;21.60;61.70;;;;;;4926966;29;20337;-77
2022/07/08 08:34:20;;;;;;;5.47;0.80;;;21.60;62.00;;;;;;4938525;29;20035;-80
2022/07/08 08:36:46;;;;;;;5.07;1.17;;;21.40;61.80;;;;;;4908555;29;20528;-79
2022/07/08 08:39:15;;;;;;;4.38;1.40;;;21.60;62.50;;;;;;4923359;29;20062;-80
2022/07/08 08:41:56;;;;;;;;;;;;;;;;;;;;;
2022/07/08 08:45:32;;;;;;;3.28;0.88;;;21.80;60.20;;;;;;4927225;29;20095;-80
2022/07/08 08:48:27;;;;;;;4.22;0.90;;;22.10;60.00;;;;;;4865762;29;20086;-79
2022/07/08 08:51:49;;;;;;;;;;;;;;;;;;;;;
2022/07/08 08:54:51;;;;;;;3.63;0.85;;;21.80;60.40;;;;;;4852314;29;20389;-79
2022/07/08 08:57:45;;;;;;;4.22;0.68;;;22.00;61.00;;;;;;4837781;29;20119;-80
2022/07/08 09:00:26;;;;;;;;;;;21.90;61.10;;;;;;4832118;29;20071;-80
2022/07/08 09:02:53;;;;;;;3.72;0.60;;;21.90;60.70;;;;;;4831174;29;19916;-80
2022/07/08 09:05:23;;;;;;;2.92;0.80;;;21.70;61.20;;;;;;4832056;29;20066;-79
2022/07/08 09:07:50;;;;;;;3.05;0.85;;;21.50;61.00;;;;;;4815463;29;20091;-79
2022/07/08 09:10:19;;;;;;;3.65;0.80;;;21.50;61.10;;;;;;4831845;29;20193;-79
2022/07/08 09:13:07;;;;;;;3.67;0.70;;;21.30;61.20;;;;;;4831546;29;20363;-81
2022/07/08 09:16:04;;;;;;;3.72;0.90;;;21.50;61.70;;;;;;4821775;29;20400;-80
2022/07/08 09:18:40;;;;;;;6.47;1.02;;;21.50;61.00;;;;;;4831400;29;20050;-80
2022/07/08 09:21:07;;;;;;;5.28;1.20;;;21.70;60.80;;;;;;4831334;29;20132;-80
2022/07/08 09:23:37;;;;;;;3.63;0.88;;;21.60;61.60;;;;;;4873249;29;20120;-80
2022/07/08 09:26:28;;;;;;;3.95;0.80;;;21.40;61.20;;;;;;4906183;29;20321;-78
2022/07/08 09:29:07;;;;;;;3.60;0.82;;;21.20;62.10;;;;;;4950157;29;20278;-79
2022/07/08 09:31:38;;;;;;;3.92;1.00;;;21.30;63.00;;;;;;4964472;28;20043;-80
2022/07/08 09:34:16;;;;;;;5.20;0.85;;;21.40;62.70;;;;;;4963196;29;20035;-78
2022/07/08 09:36:51;;;;;;;6.20;1.00;;;21.30;62.10;;;;;;4948071;29;20445;-80
2022/07/08 09:39:27;;;;;;;4.43;0.75;;;21.40;62.50;;;;;;4948282;29;20074;-79
2022/07/08 09:41:53;;;;;;;5.85;0.93;;;21.30;62.70;;;;;;4965166;29;20078;-78
2022/07/08 09:44:23;;;;;;;3.70;0.93;;;21.20;62.40;;;;;;4966707;29;20038;-79
2022/07/08 09:46:52;;;;;;;5.53;1.05;;;21.10;62.40;;;;;;4963773;28;20055;-79
2022/07/08 09:49:41;;;;;;;3.88;1.17;;;21.20;62.80;;;;;;4973536;29;20055;-79
2022/07/08 09:52:08;;;;;;;2.78;0.80;;;21.40;63.20;;;;;;4975396;29;20035;-80
2022/07/08 09:54:34;;;;;;;3.75;0.85;;;21.40;62.90;;;;;;4954872;29;20023;-78
2022/07/08 09:57:17;;;;;;;4.60;1.10;;;21.30;62.10;;;;;;4976018;29;20031;-79
2022/07/08 09:59:48;;;;;;;5.20;0.82;;;20.90;63.80;;;;;;4931880;29;20031;-79
2022/07/08 10:02:13;;;;;;;;;;;20.70;64.30;;;;;;4964606;28;20098;-78
2022/07/08 10:04:43;;;;;;;2.30;0.63;;;20.70;64.10;;;;;;4964965;29;19932;-78
2022/07/08 10:07:20;;;;;;;4.28;0.93;;;20.90;63.90;;;;;;4947412;29;20059;-82
2022/07/08 10:09:49;;;;;;;5.45;0.98;;;21.00;64.00;;;;;;4963849;29;20027;-78
2022/07/08 10:12:31;;;;;;;4.30;1.23;;;21.10;64.00;;;;;;4933225;29;20115;-79
2022/07/08 10:15:06;;;;;;;6.25;1.25;;;21.20;63.90;;;;;;4948225;29;20265;-76
2022/07/08 10:18:25;;;;;;;6.05;1.10;;;21.10;63.40;;;;;;4964323;29;20127;-78
2022/07/08 10:20:56;;;;;;;3.10;0.68;;;21.40;63.20;;;;;;4947801;29;20035;-79
2022/07/08 10:23:38;;;;;;;4.72;0.90;;;21.40;62.10;;;;;;4964565;29;20082;-82
2022/07/08 10:26:21;;;;;;;3.35;0.82;;;21.50;62.70;;;;;;4963333;28;20061;-82
2022/07/08 10:29:18;;;;;;;7.85;1.38;;;21.80;62.30;;;;;;4963169;29;20047;-80
2022/07/08 10:32:00;;;;;;;3.58;0.80;;;21.70;61.30;;;;;;4963121;28;20134;-83
2022/07/08 10:34:44;;;;;;;7.15;2.30;;;21.70;61.30;;;;;;4949264;29;20090;-80
2022/07/08 10:41:04;;;;;;;4.28;1.08;;;22.30;61.50;;;;;;4962364;29;20045;-79
2022/07/08 10:43:30;;;;;;;3.25;0.80;;;22.20;61.40;;;;;;4873419;29;20291;-77
2022/07/08 10:46:12;;;;;;;6.28;1.10;;;22.20;60.50;;;;;;4866889;29;20068;-79
2022/07/08 10:48:40;;;;;;;5.55;1.02;;;22.00;61.30;;;;;;4886694;29;20298;-78
2022/07/08 10:51:20;;;;;;;4.80;1.20;;;21.80;61.00;;;;;;4886631;29;20104;-78
2022/07/08 10:53:49;;;;;;;5.78;1.20;;;21.60;61.90;;;;;;4886225;29;20052;-79
2022/07/08 10:56:56;;;;;;;4.00;1.08;;;21.60;62.30;;;;;;4873339;29;20037;-77
2022/07/08 10:59:28;;;;;;;5.22;1.00;;;21.80;62.00;;;;;;4867542;29;20037;-78
2022/07/08 11:02:11;;;;;;;3.83;0.98;;;21.60;62.10;;;;;;4865464;29;20048;-78
2022/07/08 11:04:40;;;;;;;6.88;1.17;;;21.60;62.10;;;;;;4867419;29;20112;-78
2022/07/08 11:07:14;;;;;;;3.70;1.00;;;21.70;63.10;;;;;;4866639;29;20041;-79
2022/07/08 11:09:41;;;;;;;4.35;1.02;;;22.00;61.90;;;;;;4867361;29;20045;-79
2022/07/08 11:12:14;;;;;;;8.07;1.85;;;22.00;61.80;;;;;;4870357;29;20235;-77
2022/07/08 11:14:49;;;;;;;4.63;0.82;;;22.10;61.20;;;;;;4883675;29;20032;-78
2022/07/08 11:17:37;;;;;;;4.93;0.88;;;22.20;59.90;;;;;;4896280;29;20048;-78
2022/07/08 11:20:35;;;;;;;3.50;0.80;;;22.30;60.90;;;;;;4909389;29;20048;-79
2022/07/08 11:23:08;;;;;;;6.38;1.13;;;22.60;60.50;;;;;;4925383;29;20028;-78
2022/07/08 11:25:47;;;;;;;3.30;0.75;;;22.50;59.70;;;;;;4942072;29;20035;-78
2022/07/08 11:28:24;;;;;;;4.88;0.93;;;22.60;60.60;;;;;;4943710;29;20055;-78
2022/07/08 11:31:22;;;;;;;5.97;1.30;;;22.80;59.80;;;;;;4936053;29;20063;-79
2022/07/08 11:33:47;;;;;;;5.35;0.80;;;22.80;60.60;;;;;;4863952;29;20033;-79
2022/07/08 11:36:17;;;;;;;6.97;0.70;;;23.10;59.40;;;;;;4866904;29;20062;-79
2022/07/08 11:38:48;;;;;;;4.63;0.80;;;23.20;59.30;;;;;;4866829;29;20045;-79
2022/07/08 11:41:20;;;;;;;6.43;0.85;;;23.60;58.70;;;;;;4866602;29;20053;-80
2022/07/08 11:43:50;;;;;;;6.15;0.70;;;23.70;58.30;;;;;;4866136;29;20041;-78
2022/07/08 11:46:21;;;;;;;2.00;0.80;;;24.20;57.90;;;;;;4866103;29;20053;-79
2022/07/08 11:48:47;;;;;;;4.28;0.98;;;24.90;56.30;;;;;;4871306;29;20105;-83
2022/07/08 11:51:38;;;;;;;6.65;1.10;;;25.70;55.00;;;;;;4848327;29;20151;-78
2022/07/08 11:54:03;;;;;;;3.60;0.75;;;26.20;54.90;;;;;;4834192;29;20041;-79
2022/07/08 11:56:31;;;;;;;3.45;1.30;;;26.80;54.00;;;;;;4861879;29;20247;-74
2022/07/08 11:58:57;;;;;;;2.83;0.60;;;27.70;52.50;;;;;;4866141;29;20115;-79
2022/07/08 12:01:41;;;;;;;3.25;0.63;;;29.00;50.50;;;;;;4866321;29;20082;-80
2022/07/08 12:04:07;;;;;;;2.75;0.60;;;29.70;50.20;;;;;;4862994;29;20073;-79
2022/07/08 12:06:46;;;;;;;2.25;0.47;;;30.90;48.60;;;;;;4852345;29;20319;-80
2022/07/08 12:09:12;;;;;;;2.90;0.65;;;30.40;48.50;;;;;;4836900;29;20049;-78
2022/07/08 12:11:43;;;;;;;2.83;0.57;;;31.10;47.40;;;;;;4929554;29;20040;-78
2022/07/08 12:14:10;;;;;;;3.28;0.70;;;31.70;47.80;;;;;;4940701;29;20035;-78
2022/07/08 12:16:51;;;;;;;2.50;0.60;;;32.20;46.70;;;;;;4923751;29;20369;-80
2022/07/08 12:19:37;;;;;;;2.78;0.60;;;32.20;46.00;;;;;;4925669;29;20038;-79
2022/07/08 12:22:45;;;;;;;2.58;0.68;;;33.50;46.00;;;;;;4943960;29;20035;-79
2022/07/08 12:25:19;;;;;;;3.25;0.63;;;33.50;44.90;;;;;;4925193;29;20055;-80
2022/07/08 12:28:04;;;;;;;4.25;0.70;;;33.60;46.00;;;;;;4936077;29;20063;-82
2022/07/08 12:30:31;;;;;;;2.45;0.52;;;34.20;45.50;;;;;;4938382;29;20264;-78
2022/07/08 12:33:36;;;;;;;3.05;0.80;;;34.20;44.80;;;;;;4934398;29;20099;-79
2022/07/08 12:36:31;;;;;;;2.55;0.43;;;34.70;44.40;;;;;;4863409;29;20048;-79
2022/07/08 12:39:17;;;;;;;3.45;0.80;;;35.40;43.90;;;;;;4941022;29;20048;-79
2022/07/08 12:42:06;;;;;;;2.50;0.70;;;35.70;44.10;;;;;;4940841;29;20023;-80
2022/07/08 12:44:46;;;;;;;2.33;0.40;;;36.50;43.20;;;;;;4944016;29;20099;-79
2022/07/08 12:47:13;;;;;;;2.13;0.35;;;37.50;42.40;;;;;;4943234;29;20055;-78
2022/07/08 12:49:46;;;;;;;4.40;0.43;;;37.70;41.40;;;;;;4944567;29;20023;-79
2022/07/08 12:52:12;;;;;;;4.38;0.70;;;37.40;41.40;;;;;;4946978;29;20055;-78
2022/07/08 12:54:39;;;;;;;3.25;0.60;;;37.80;41.20;;;;;;4947287;29;20039;-79
2022/07/08 12:57:06;;;;;;;2.38;0.50;;;38.60;41.40;;;;;;4946932;29;20296;-79
2022/07/08 12:59:32;;;;;;;2.47;0.50;;;38.50;41.30;;;;;;4946072;29;20031;-78
2022/07/08 13:01:58;;;;;;;2.88;0.60;;;38.50;41.00;;;;;;4947851;29;20055;-79
2022/07/08 13:04:28;;;;;;;2.72;0.60;;;38.30;40.50;;;;;;4966051;29;20042;-80
2022/07/08 13:06:56;;;;;;;5.00;0.73;;;38.30;41.20;;;;;;4960282;29;20059;-79
2022/07/08 13:09:22;;;;;;;4.70;0.65;;;39.60;41.30;;;;;;4953190;29;20046;-76
2022/07/08 13:11:48;;;;;;;2.70;0.73;;;39.90;40.20;;;;;;4947099;29;20114;-79
2022/07/08 13:14:15;;;;;;;1.80;0.50;;;39.80;39.90;;;;;;4965553;29;20078;-81
2022/07/08 13:16:42;;;;;;;4.63;1.55;;;39.90;39.60;;;;;;4959746;28;20027;-82
2022/07/08 13:19:14;;;;;;;4.13;0.93;;;40.00;40.00;;;;;;4947414;29;20044;-83
2022/07/08 13:21:41;;;;;;;4.75;0.63;;;40.90;39.60;;;;;;4965179;29;20024;-84
2022/07/08 13:24:19;;;;;;;2.35;0.73;;;41.00;39.20;;;;;;4964956;28;20035;-79
2022/07/08 13:26:53;;;;;;;3.65;0.60;;;40.30;39.30;;;;;;4950124;29;20058;-81
2022/07/08 13:29:22;;;;;;;3.83;0.57;;;40.20;39.90;;;;;;4964681;29;20221;-80
2022/07/08 13:31:51;;;;;;;4.50;0.90;;;39.20;39.30;;;;;;4965823;28;20035;-84
2022/07/08 13:34:20;;;;;;;4.43;0.88;;;40.40;40.00;;;;;;4958745;29;20028;-79
2022/07/08 13:36:46;;;;;;;2.85;0.47;;;40.90;39.00;;;;;;4965644;28;20054;-81
2022/07/08 13:39:18;;;;;;;5.00;0.80;;;42.30;38.60;;;;;;4964218;29;20038;-83
2022/07/08 13:41:47;;;;;;;4.57;0.70;;;41.70;38.80;;;;;;4955696;29;20032;-82
2022/07/08 13:44:16;;;;;;;3.17;0.68;;;41.90;38.20;;;;;;4960827;29;20032;-81
2022/07/08 13:46:42;;;;;;;2.78;0.57;;;41.30;38.70;;;;;;4945733;29;20262;-78
2022/07/08 13:52:39;;;;;;;3.20;0.52;;;42.20;38.00;;;;;;4959101;29;20139;-82
2022/07/08 13:55:18;;;;;;;2.05;0.47;;;41.80;38.10;;;;;;4946397;29;20028;-81
2022/07/08 13:57:47;;;;;;;3.47;1.08;;;42.20;37.60;;;;;;4945370;29;20023;-82
2022/07/08 14:00:24;;;;;;;2.30;0.40;;;42.50;37.70;;;;;;4959739;28;20043;-81
2022/07/08 14:02:59;;;;;;;5.75;0.90;;;42.80;37.80;;;;;;4944451;29;20040;-82
2022/07/08 14:06:00;;;;;;;2.08;0.43;;;43.00;37.40;;;;;;4946494;29;20130;-82
2022/07/08 14:08:35;;;;;;;2.65;0.50;;;42.70;37.40;;;;;;4906661;29;20086;-82
2022/07/08 14:11:04;;;;;;;3.60;0.70;;;42.80;37.20;;;;;;4906901;29;20044;-81
2022/07/08 14:13:37;;;;;;;6.05;1.23;;;43.80;37.20;;;;;;4890082;29;20302;-82
2022/07/08 14:16:04;;;;;;;3.20;0.52;;;44.00;37.30;;;;;;4904891;29;20036;-80
2022/07/08 14:18:38;;;;;;;;;;;43.30;37.50;;;;;;4906432;29;20035;-80
2022/07/08 14:21:05;;;;;;;2.55;0.50;;;43.80;37.50;;;;;;4890044;29;19954;-81
2022/07/08 14:23:33;;;;;;;2.67;0.60;;;42.60;37.80;;;;;;4889902;29;20024;-78
2022/07/08 14:25:59;;;;;;;2.63;0.55;;;42.30;38.30;;;;;;4889312;29;20053;-80
2022/07/08 14:28:25;;;;;;;2.17;0.40;;;42.60;37.70;;;;;;4886820;29;20025;-81
2022/07/08 14:30:51;;;;;;;4.63;0.50;;;44.20;37.20;;;;;;4885823;29;20033;-77
2022/07/08 14:33:17;;;;;;;2.47;0.60;;;43.70;36.50;;;;;;4886581;29;20248;-78
2022/07/08 14:35:43;;;;;;;3.67;0.77;;;42.20;37.50;;;;;;4904642;29;20029;-78
2022/07/08 14:38:20;;;;;;;2.55;0.82;;;42.30;37.60;;;;;;4889438;29;20067;-80
2022/07/08 14:40:46;;;;;;;2.65;0.47;;;43.10;37.40;;;;;;4906292;29;20037;-78
2022/07/08 14:43:14;;;;;;;3.25;0.65;;;43.10;36.90;;;;;;4905846;29;20275;-80
2022/07/08 14:45:40;;;;;;;3.22;0.75;;;43.80;37.10;;;;;;4932228;29;20125;-78
2022/07/08 14:48:06;;;;;;;3.28;0.77;;;44.20;37.30;;;;;;4946005;29;20048;-78
2022/07/08 14:50:32;;;;;;;3.15;0.77;;;45.20;36.60;;;;;;4964968;29;20035;-78
2022/07/08 14:53:00;;;;;;;2.58;0.50;;;45.30;36.30;;;;;;4946434;29;20090;-78
2022/07/08 14:55:26;;;;;;;3.00;0.60;;;44.40;36.20;;;;;;4964452;29;20031;-79
2022/07/08 14:57:54;;;;;;;3.92;0.65;;;44.20;36.40;;;;;;4946769;29;20074;-78
2022/07/08 15:00:20;;;;;;;4.53;0.60;;;44.20;36.60;;;;;;4964026;28;20099;-76
2022/07/08 15:02:46;;;;;;;3.45;0.65;;;43.30;36.80;;;;;;4964010;28;20062;-78
2022/07/08 15:05:12;;;;;;;3.17;0.70;;;42.80;37.30;;;;;;4962812;29;20198;-78
2022/07/08 15:07:57;;;;;;;2.45;0.70;;;42.40;37.30;;;;;;4964738;29;20093;-79
2022/07/08 15:10:25;;;;;;;2.40;0.52;;;42.50;37.40;;;;;;4964695;29;20035;-79
2022/07/08 15:12:51;;;;;;;2.13;0.50;;;43.40;36.90;;;;;;4956950;28;20023;-80
2022/07/08 15:15:25;;;;;;;3.53;0.77;;;44.40;37.10;;;;;;4951109;29;20055;-79
2022/07/08 15:17:54;;;;;;;1.95;0.50;;;44.80;36.40;;;;;;4951707;29;20103;-78
2022/07/08 15:20:20;;;;;;;2.30;0.52;;;45.30;36.40;;;;;;4953218;29;20039;-79
2022/07/08 15:22:46;;;;;;;3.85;0.68;;;45.60;35.90;;;;;;4951209;29;20023;-78
2022/07/08 15:25:12;;;;;;;3.67;0.50;;;44.90;36.30;;;;;;4956427;29;20387;-78
2022/07/08 15:27:38;;;;;;;2.20;0.50;;;44.90;36.30;;;;;;4966942;29;20225;-79
2022/07/08 15:30:08;;;;;;;3.22;0.75;;;44.40;35.90;;;;;;4964109;28;20019;-80
2022/07/08 15:32:35;;;;;;;3.17;0.50;;;45.50;36.10;;;;;;4963291;29;20049;-77
2022/07/08 15:35:01;;;;;;;3.13;0.70;;;45.30;35.80;;;;;;4963136;29;20043;-78
2022/07/08 15:37:28;;;;;;;3.23;0.57;;;45.50;35.50;;;;;;4946788;29;20019;-80
2022/07/08 15:39:54;;;;;;;6.47;0.90;;;44.50;36.00;;;;;;4946503;29;20023;-80
2022/07/08 15:42:20;;;;;;;3.13;0.80;;;43.80;36.50;;;;;;4963304;29;20042;-78
2022/07/08 15:44:48;;;;;;;4.25;0.50;;;44.00;36.50;;;;;;4964247;29;20040;-78
2022/07/08 15:47:14;;;;;;;4.00;0.70;;;43.30;36.70;;;;;;4963034;28;20069;-78
2022/07/08 15:49:43;;;;;;;1.93;0.47;;;43.70;36.50;;;;;;4963979;29;20027;-78
2022/07/08 15:52:20;;;;;;;3.22;1.25;;;44.00;36.50;;;;;;4963036;29;20106;-80
2022/07/08 15:54:46;;;;;;;5.55;1.00;;;44.30;36.30;;;;;;4964235;29;20069;-80
2022/07/08 15:57:11;;;;;;;1.85;0.40;;;44.50;35.80;;;;;;4962674;29;20091;-79
2022/07/08 15:59:40;;;;;;;2.97;0.50;;;44.60;35.40;;;;;;4963957;29;20015;-76
2022/07/08 16:02:06;;;;;;;2.88;0.50;;;44.10;35.70;;;;;;4945118;29;20039;-77
2022/07/08 16:04:32;;;;;;;2.15;0.60;;;45.10;35.50;;;;;;4963124;29;20039;-77
2022/07/08 16:06:58;;;;;;;3.63;0.80;;;45.90;35.50;;;;;;4962875;29;20045;-77
2022/07/08 16:09:24;;;;;;;2.90;0.70;;;46.10;34.90;;;;;;4962620;29;20046;-76
2022/07/08 16:11:49;;;;;;;3.20;0.60;;;45.80;35.10;;;;;;4961669;29;20379;-77
2022/07/08 16:14:15;;;;;;;2.83;0.80;;;45.40;35.20;;;;;;4961977;29;20138;-77
2022/07/08 16:16:41;;;;;;;2.20;0.50;;;44.50;35.50;;;;;;4960697;29;20196;-77
2022/07/08 16:19:06;;;;;;;2.85;0.57;;;44.80;36.10;;;;;;4961140;29;20035;-77
2022/07/08 16:21:32;;;;;;;3.28;0.52;;;45.20;35.20;;;;;;4962389;29;20321;-77
2022/07/08 16:23:58;;;;;;;2.88;0.50;;;44.70;35.60;;;;;;4947194;29;20324;-77
2022/07/08 16:26:24;;;;;;;3.80;0.90;;;44.70;36.00;;;;;;4946912;29;20035;-76
2022/07/08 16:28:50;;;;;;;2.45;0.65;;;45.70;35.40;;;;;;4947030;29;20023;-76
2022/07/08 16:31:17;;;;;;;2.53;0.60;;;44.80;35.20;;;;;;4945566;29;20059;-78
2022/07/08 16:33:43;;;;;;;;;;;44.10;36.60;;;;;;4949477;29;20058;-77
2022/07/08 16:36:10;;;;;;;3.00;0.70;;;44.10;35.50;;;;;;4965554;29;19985;-77
2022/07/08 16:38:36;;;;;;;3.17;0.80;;;43.70;35.80;;;;;;4965721;29;20043;-76
2022/07/08 16:41:03;;;;;;;3.83;0.63;;;43.10;35.60;;;;;;4964181;29;20043;-76
2022/07/08 16:43:28;;;;;;;3.25;0.55;;;43.20;36.10;;;;;;4964836;29;20031;-77
2022/07/08 16:45:54;;;;;;;3.17;1.00;;;42.90;36.40;;;;;;4952479;28;20431;-79
2022/07/08 16:48:20;;;;;;;3.63;0.60;;;43.60;35.80;;;;;;4952049;29;20019;-77
2022/07/08 16:50:49;;;;;;;2.78;0.57;;;43.60;36.70;;;;;;4964767;29;20035;-79
2022/07/08 16:53:15;;;;;;;2.50;0.60;;;43.20;35.60;;;;;;4928815;29;20061;-78
2022/07/08 16:55:43;;;;;;;3.72;0.65;;;43.00;36.10;;;;;;4945977;29;20055;-79
2022/07/08 16:58:09;;;;;;;1.60;0.60;;;42.00;36.40;;;;;;4928595;29;20024;-78
2022/07/08 17:00:36;;;;;;;5.30;0.77;;;40.90;37.50;;;;;;4945373;29;20090;-78
2022/07/08 17:03:02;;;;;;;4.75;0.70;;;40.10;37.90;;;;;;4945997;29;20286;-77
2022/07/08 17:05:28;;;;;;;3.92;0.60;;;39.60;37.90;;;;;;4913670;29;20063;-78
2022/07/08 17:07:54;;;;;;;3.25;0.60;;;39.50;38.10;;;;;;4938705;29;20198;-77
2022/07/08 17:10:22;;;;;;;4.97;0.75;;;39.50;38.20;;;;;;4965821;29;20094;-78
2022/07/08 17:12:48;;;;;;;3.60;0.68;;;40.20;38.00;;;;;;4965068;29;20035;-78
2022/07/08 17:15:15;;;;;;;4.22;0.80;;;40.60;37.30;;;;;;4948893;28;20030;-78
2022/07/08 17:17:48;;;;;;;3.20;0.68;;;40.90;37.50;;;;;;4941527;29;20149;-79
2022/07/08 17:20:18;;;;;;;1.90;0.50;;;41.50;36.70;;;;;;4943691;29;20031;-78
2022/07/08 17:22:46;;;;;;;3.88;0.95;;;41.00;36.80;;;;;;4943943;29;20018;-79
2022/07/08 17:25:12;;;;;;;3.75;0.70;;;40.70;36.90;;;;;;4962296;28;20332;-78
2022/07/08 17:27:38;;;;;;;4.38;1.10;;;41.70;37.20;;;;;;4958130;29;20031;-78
2022/07/08 17:30:04;;;;;;;2.25;0.70;;;41.70;36.40;;;;;;4962523;28;20035;-77
2022/07/08 17:32:30;;;;;;;3.72;1.10;;;42.10;36.60;;;;;;4932535;29;20054;-77
2022/07/08 17:34:59;;;;;;;3.10;0.80;;;41.00;37.00;;;;;;4964041;28;20023;-76
2022/07/08 17:37:28;;;;;;;3.33;0.80;;;40.40;37.40;;;;;;4959606;29;20028;-77
2022/07/08 17:39:55;;;;;;;2.83;0.70;;;40.10;37.30;;;;;;4946700;29;20031;-76
2022/07/08 17:42:24;;;;;;;3.03;0.82;;;40.30;37.30;;;;;;4961220;29;20099;-78
2022/07/08 17:44:53;;;;;;;4.65;0.70;;;40.40;37.10;;;;;;4961129;29;20019;-78
2022/07/08 17:47:19;;;;;;;5.97;0.68;;;39.80;37.40;;;;;;4947304;29;20031;-77
2022/07/08 17:49:51;;;;;;;1.73;0.45;;;39.30;37.80;;;;;;4965123;29;20071;-79
2022/07/08 17:52:22;;;;;;;2.42;0.52;;;39.10;37.90;;;;;;4962861;29;20062;-82
2022/07/08 17:54:51;;;;;;;5.13;0.95;;;38.80;38.50;;;;;;4955600;29;20046;-80
2022/07/08 17:58:04;;;;;;;2.80;0.80;;;38.80;38.20;;;;;;4931759;29;20047;-81
2022/07/08 18:01:03;;;;;;;3.78;0.80;;;39.40;38.20;;;;;;4964358;28;20046;-82
2022/07/08 18:03:43;;;;;;;4.25;0.70;;;38.50;37.70;;;;;;4948126;29;20411;-82
2022/07/08 18:06:16;;;;;;;4.40;0.75;;;38.30;38.10;;;;;;4930265;29;20063;-82
2022/07/08 18:08:54;;;;;;;3.58;0.65;;;38.00;38.30;;;;;;4962754;29;20062;-85
2022/07/08 18:11:20;;;;;;;2.40;0.52;;;37.80;38.40;;;;;;4964039;29;20217;-79
2022/07/08 18:13:52;;;;;;;3.63;0.85;;;37.60;38.70;;;;;;4965249;29;20039;-80
2022/07/08 18:16:27;;;;;;;2.90;0.55;;;37.40;38.80;;;;;;4964834;28;20090;-79
2022/07/08 18:18:55;;;;;;;3.53;0.70;;;37.10;38.90;;;;;;4961571;29;20043;-79
2022/07/08 18:21:39;;;;;;;3.53;0.70;;;36.80;39.00;;;;;;4962029;29;20058;-78
2022/07/08 18:24:05;;;;;;;3.85;1.15;;;36.60;39.30;;;;;;4964037;29;20345;-81
2022/07/08 18:26:50;;;;;;;4.13;1.00;;;36.50;39.40;;;;;;4965326;29;20037;-80